Terminal Aerodrome Forecast
Issued by NWS Duluth, MN

Home | Current Version | Previous Version | Text Only | Print | Product List | Glossary On
Versions: 1 2 3 4 5 6 7 8 9 10 11 12 13 14 15 16 17 18 19 20 21 22 23 24 25 26 27 28 29 30 31 32 33
248
FTUS43 KDLH 250202 AAB
TAFDLH
TAF AMD
KDLH 250202Z 2502/2524 09007KT 6SM -DZ BR OVC010
      TEMPO 2502/2504 4SM -DZSN BKN008 OVC013
     FM250600 08009G17KT 4SM BR OVC009
     FM251600 09013G21KT P6SM BKN020
     FM251900 09014G21KT P6SM SCT025=

USA.gov is the U.S. government's official web portal to all federal, state and local government web resources and services.